Time;durP1;ratioP1;P1;durP2;ratioP2;P2;SDS_P1;SDS_P2;PMS_P1;PMS_P2;Temp;Humidity;BMP_temperature;BMP_pressure;BME280_temperature;BME280_humidity;BME280_pressure;Samples;Min_cycle;Max_cycle;Signal;HPM_P1;HPM_P2
2023/03/23 00:02:29;;;;;;;6.97;3.50;;;;;;;;;;6359096;27;20055;-78
2023/03/23 00:05:31;;;;;;;7.80;2.90;;;;;;;;;;6365712;28;20043;-75
2023/03/23 00:08:37;;;;;;;9.70;3.58;;;;;;;;;;6364780;27;20043;-76
2023/03/23 00:11:40;;;;;;;5.45;3.40;;;;;;;;;;6363112;27;20246;-76
2023/03/23 00:14:42;;;;;;;5.13;3.15;;;;;;;;;;6346130;27;20363;-77
2023/03/23 00:25:16;;;;;;;5.18;3.38;;;;;;;;;;6206159;28;20045;-76
2023/03/23 00:28:30;;;;;;;6.25;2.90;;;;;;;;;;6204192;28;20331;-79
2023/03/23 00:32:02;;;;;;;3.70;2.80;;;;;;;;;;6192250;28;20055;-74
2023/03/23 00:35:19;;;;;;;5.93;2.78;;;;;;;;;;6164863;28;20054;-79
2023/03/23 00:38:39;;;;;;;6.07;2.95;;;;;;;;;;6197626;28;20050;-81
2023/03/23 00:45:51;;;;;;;;;;;;;;;;;;;;;
2023/03/23 00:49:03;;;;;;;4.45;2.47;;;;;;;;;;6200508;28;20054;-73
2023/03/23 00:52:43;;;;;;;4.95;3.00;;;;;;;;;;6222005;28;20053;-73
2023/03/23 01:00:10;;;;;;;3.20;2.60;;;;;;;;;;6281556;28;20029;-74
2023/03/23 01:03:17;;;;;;;9.15;3.05;;;;;;;;;;6272658;28;20060;-75
2023/03/23 01:07:22;;;;;;;;;;;;;;;;;;;;;
2023/03/23 01:14:30;;;;;;;5.30;2.35;;;;;;;;;;6244125;28;20478;-78
2023/03/23 01:18:14;;;;;;;4.32;3.00;;;;;;;;;;6233150;28;20060;-79
2023/03/23 01:21:54;;;;;;;6.07;2.90;;;;;;;;;;6269107;28;20250;-79
2023/03/23 01:28:47;;;;;;;4.65;2.78;;;;;;;;;;6194895;28;20131;-74
2023/03/23 01:31:59;;;;;;;4.90;2.55;;;;;;;;;;6190908;28;20082;-73
2023/03/23 01:36:01;;;;;;;3.58;2.85;;;;;;;;;;6179990;28;20046;-74
2023/03/23 01:43:54;;;;;;;5.35;3.08;;;;;;;;;;6090025;29;20861;-77
2023/03/23 01:55:06;;;;;;;5.35;2.85;;;;;;;;;;5991273;29;20046;-76
2023/03/23 01:58:10;;;;;;;3.45;2.92;;;;;;;;;;6005070;29;20077;-78
2023/03/23 02:01:17;;;;;;;4.88;3.20;;;;;;;;;;5988792;29;20069;-77
2023/03/23 02:04:34;;;;;;;5.00;3.47;;;;;;;;;;6070105;29;20052;-78
2023/03/23 02:07:38;;;;;;;5.80;3.00;;;;;;;;;;6116054;29;20343;-78
2023/03/23 02:10:42;;;;;;;;;;;;;;;;;;6154189;28;20054;-79
2023/03/23 02:13:52;;;;;;;7.75;3.35;;;;;;;;;;6192434;28;20469;-77
2023/03/23 02:17:02;;;;;;;7.85;3.78;;;;;;;;;;6181115;28;20153;-76
2023/03/23 02:20:34;;;;;;;5.60;3.20;;;;;;;;;;6234417;28;20099;-75
2023/03/23 02:24:23;;;;;;;3.80;3.28;;;;;;;;;;6242224;28;20112;-79
2023/03/23 02:28:11;;;;;;;7.57;3.10;;;;;;;;;;6302410;28;20116;-77
2023/03/23 02:36:01;;;;;;;5.28;2.90;;;;;;;;;;6179596;28;20058;-78
2023/03/23 02:39:44;;;;;;;6.32;3.42;;;;;;;;;;6191980;28;20342;-79
2023/03/23 02:42:49;;;;;;;8.82;3.90;;;;;;;;;;6178942;28;20061;-78
2023/03/23 02:49:56;;;;;;;5.35;2.97;;;;;;;;;;6190729;28;20246;-78
2023/03/23 02:57:28;;;;;;;6.70;3.35;;;;;;;;;;6154792;28;20078;-80
2023/03/23 03:00:30;;;;;;;3.90;3.20;;;;;;;;;;6156129;28;20053;-77
2023/03/23 03:03:48;;;;;;;8.57;3.70;;;;;;;;;;6191097;28;20054;-76
2023/03/23 03:07:08;;;;;;;4.38;2.83;;;;;;;;;;6206369;28;20056;-78
2023/03/23 03:13:48;;;;;;;4.93;3.20;;;;;;;;;;6361313;27;20046;-78
2023/03/23 03:17:05;;;;;;;4.60;3.05;;;;;;;;;;6340545;27;20172;-76
2023/03/23 03:20:10;;;;;;;4.95;3.08;;;;;;;;;;6360227;27;20053;-80
2023/03/23 03:23:21;;;;;;;5.70;2.90;;;;;;;;;;6361943;27;20065;-77
2023/03/23 03:26:27;;;;;;;5.57;3.28;;;;;;;;;;6364104;27;20079;-78
2023/03/23 03:29:34;;;;;;;3.60;3.05;;;;;;;;;;6362943;27;20054;-75
2023/03/23 03:36:09;;;;;;;4.95;3.35;;;;;;;;;;6356731;27;20047;-77
2023/03/23 03:39:12;;;;;;;4.15;3.50;;;;;;;;;;6361408;27;20047;-78
2023/03/23 03:42:16;;;;;;;5.88;3.40;;;;;;;;;;6362167;27;20054;-77
2023/03/23 03:45:22;;;;;;;;;;;;;;;;;;6361736;27;20487;-76
2023/03/23 03:49:04;;;;;;;5.25;3.30;;;;;;;;;;6349110;27;19915;-78
2023/03/23 03:52:08;;;;;;;5.47;3.15;;;;;;;;;;6360071;27;20035;-76
2023/03/23 03:55:15;;;;;;;3.60;2.80;;;;;;;;;;6366500;27;20046;-76
2023/03/23 04:02:19;;;;;;;5.07;3.00;;;;;;;;;;6268327;28;20381;-78
2023/03/23 04:05:24;;;;;;;5.55;3.35;;;;;;;;;;6264396;28;20156;-78
2023/03/23 04:08:34;;;;;;;6.32;3.40;;;;;;;;;;6261625;28;20045;-79
2023/03/23 04:11:43;;;;;;;6.13;2.83;;;;;;;;;;6270699;28;20060;-78
2023/03/23 04:14:45;;;;;;;3.88;3.10;;;;;;;;;;6265449;28;20127;-79
2023/03/23 04:17:51;;;;;;;5.57;3.28;;;;;;;;;;6271697;28;20771;-77
2023/03/23 04:21:14;;;;;;;3.97;2.92;;;;;;;;;;6270101;28;20188;-76
2023/03/23 04:24:35;;;;;;;4.55;3.33;;;;;;;;;;6268827;28;20095;-77
2023/03/23 04:35:12;;;;;;;6.65;3.63;;;;;;;;;;6182030;28;20072;-77
2023/03/23 04:42:29;;;;;;;4.63;3.10;;;;;;;;;;6229104;28;20053;-76
2023/03/23 04:45:41;;;;;;;4.13;2.90;;;;;;;;;;6170852;28;20065;-78
2023/03/23 04:48:43;;;;;;;5.78;3.13;;;;;;;;;;6297139;28;20075;-77
2023/03/23 04:51:46;;;;;;;3.92;2.90;;;;;;;;;;6295532;28;20062;-78
2023/03/23 04:54:48;;;;;;;4.57;3.25;;;;;;;;;;6296318;28;20051;-78
2023/03/23 04:57:50;;;;;;;6.07;3.30;;;;;;;;;;6328764;27;20047;-78
2023/03/23 05:00:52;;;;;;;6.75;2.90;;;;;;;;;;6361336;27;20058;-78
2023/03/23 05:03:55;;;;;;;4.43;3.42;;;;;;;;;;6360685;27;20064;-76
2023/03/23 05:06:58;;;;;;;6.28;3.53;;;;;;;;;;6359628;28;20111;-74
2023/03/23 05:10:00;;;;;;;4.70;3.30;;;;;;;;;;6366051;27;20414;-78
2023/03/23 05:13:05;;;;;;;4.55;3.33;;;;;;;;;;6353003;27;20471;-78
2023/03/23 05:16:07;;;;;;;5.35;3.55;;;;;;;;;;6361917;27;20047;-77
2023/03/23 05:19:09;;;;;;;7.00;3.15;;;;;;;;;;6364235;27;20106;-77
2023/03/23 05:22:14;;;;;;;5.07;3.70;;;;;;;;;;6362753;27;20055;-76
2023/03/23 05:25:22;;;;;;;4.55;3.75;;;;;;;;;;6362394;27;20354;-78
2023/03/23 05:28:24;;;;;;;4.18;3.55;;;;;;;;;;6364254;27;20250;-75
2023/03/23 05:31:30;;;;;;;7.65;4.40;;;;;;;;;;6347979;27;20114;-77
2023/03/23 05:34:36;;;;;;;4.68;3.38;;;;;;;;;;6362064;27;20406;-78
2023/03/23 05:37:39;;;;;;;4.72;3.70;;;;;;;;;;6362542;27;20084;-78
2023/03/23 05:40:42;;;;;;;4.13;3.22;;;;;;;;;;6360377;27;20074;-78
2023/03/23 05:43:47;;;;;;;6.70;3.92;;;;;;;;;;6361361;27;20292;-78
2023/03/23 05:46:49;;;;;;;6.57;3.85;;;;;;;;;;6360246;27;20911;-77
2023/03/23 05:49:52;;;;;;;8.50;3.38;;;;;;;;;;6209599;27;4345321;-76
2023/03/23 05:52:55;;;;;;;5.88;3.40;;;;;;;;;;6363077;27;20092;-73
2023/03/23 05:55:59;;;;;;;5.18;3.50;;;;;;;;;;6363902;27;20055;-74
2023/03/23 05:59:11;;;;;;;4.85;3.20;;;;;;;;;;6360090;27;20059;-75
2023/03/23 06:02:23;;;;;;;7.07;3.72;;;;;;;;;;6349110;27;20039;-78
2023/03/23 06:05:25;;;;;;;5.35;3.80;;;;;;;;;;6362695;27;20080;-76
2023/03/23 06:08:29;;;;;;;6.05;3.63;;;;;;;;;;6362127;27;20239;-77
2023/03/23 06:11:55;;;;;;;7.13;4.10;;;;;;;;;;6361560;27;20055;-75
2023/03/23 06:14:58;;;;;;;6.70;3.40;;;;;;;;;;6362410;27;20043;-79
2023/03/23 06:18:00;;;;;;;10.07;4.15;;;;;;;;;;6361819;27;20124;-80
2023/03/23 06:21:02;;;;;;;5.22;3.90;;;;;;;;;;6364024;27;20097;-79
2023/03/23 06:24:06;;;;;;;6.72;3.40;;;;;;;;;;6363825;27;20051;-79
2023/03/23 06:27:08;;;;;;;8.77;3.65;;;;;;;;;;6363054;27;20362;-77
2023/03/23 06:30:11;;;;;;;6.03;3.55;;;;;;;;;;6360741;27;20251;-78
2023/03/23 06:33:13;;;;;;;5.03;3.20;;;;;;;;;;6363371;27;20109;-78
2023/03/23 06:36:15;;;;;;;6.03;3.60;;;;;;;;;;6364206;27;20066;-78
2023/03/23 06:39:18;;;;;;;3.88;3.00;;;;;;;;;;6365679;27;20047;-77
2023/03/23 06:42:20;;;;;;;5.88;3.08;;;;;;;;;;6361104;27;20092;-78
2023/03/23 06:45:22;;;;;;;5.10;3.60;;;;;;;;;;6360603;27;20190;-79
2023/03/23 06:48:24;;;;;;;4.30;3.17;;;;;;;;;;6360609;27;20073;-77
2023/03/23 06:51:26;;;;;;;5.07;3.45;;;;;;;;;;6342507;27;20142;-78
2023/03/23 06:54:30;;;;;;;4.05;2.95;;;;;;;;;;6335012;27;20055;-76
2023/03/23 06:57:31;;;;;;;7.95;3.55;;;;;;;;;;6335773;27;20054;-76
2023/03/23 07:00:33;;;;;;;6.43;3.20;;;;;;;;;;6335036;27;20051;-78
2023/03/23 07:03:36;;;;;;;6.63;3.30;;;;;;;;;;6334564;28;20348;-77
2023/03/23 07:06:38;;;;;;;6.18;3.10;;;;;;;;;;6334617;28;20059;-77
2023/03/23 07:09:42;;;;;;;4.38;2.90;;;;;;;;;;6334256;28;20089;-78
2023/03/23 07:12:44;;;;;;;4.40;3.00;;;;;;;;;;6338574;28;20067;-78
2023/03/23 07:15:45;;;;;;;4.70;3.15;;;;;;;;;;6338093;28;20115;-78
2023/03/23 07:18:47;;;;;;;6.00;2.88;;;;;;;;;;6339749;28;20353;-79
2023/03/23 07:21:49;;;;;;;6.07;3.50;;;;;;;;;;6334601;28;20052;-74
2023/03/23 07:24:53;;;;;;;4.75;3.10;;;;;;;;;;6336797;27;20278;-79
2023/03/23 07:27:55;;;;;;;3.08;2.45;;;;;;;;;;6335922;28;20055;-78
2023/03/23 07:30:57;;;;;;;5.43;3.25;;;;;;;;;;6334796;28;20051;-76
2023/03/23 07:33:59;;;;;;;6.88;3.05;;;;;;;;;;6337045;28;20051;-76
2023/03/23 07:37:01;;;;;;;4.38;2.97;;;;;;;;;;6335042;28;20610;-77
2023/03/23 07:40:14;;;;;;;4.65;2.42;;;;;;;;;;6336784;28;20059;-76
2023/03/23 07:43:16;;;;;;;4.45;2.80;;;;;;;;;;6338920;28;20247;-78
2023/03/23 07:46:18;;;;;;;5.32;2.67;;;;;;;;;;6337701;28;20078;-75
2023/03/23 07:49:20;;;;;;;4.70;2.95;;;;;;;;;;6335068;28;20097;-77
2023/03/23 07:52:23;;;;;;;7.45;3.40;;;;;;;;;;6334483;28;20344;-78
2023/03/23 07:55:27;;;;;;;4.82;3.03;;;;;;;;;;6337525;28;20328;-78
2023/03/23 07:58:29;;;;;;;4.68;2.80;;;;;;;;;;6336135;28;20086;-79
2023/03/23 08:01:31;;;;;;;4.55;3.10;;;;;;;;;;6334232;28;20056;-76
2023/03/23 08:04:36;;;;;;;5.43;3.03;;;;;;;;;;6337685;28;20059;-78
2023/03/23 08:07:39;;;;;;;6.05;3.40;;;;;;;;;;6334214;28;20047;-78
2023/03/23 08:10:42;;;;;;;6.03;3.30;;;;;;;;;;6334505;28;21313;-78
2023/03/23 08:13:44;;;;;;;7.68;3.85;;;;;;;;;;6335264;28;20040;-77
2023/03/23 08:16:46;;;;;;;7.60;3.20;;;;;;;;;;6333904;28;20052;-77
2023/03/23 08:19:48;;;;;;;7.35;3.45;;;;;;;;;;6336082;28;20050;-77
2023/03/23 08:22:52;;;;;;;4.80;3.20;;;;;;;;;;6335150;28;20048;-77
2023/03/23 08:25:55;;;;;;;4.13;3.38;;;;;;;;;;6334319;28;20067;-77
2023/03/23 08:28:57;;;;;;;6.47;3.40;;;;;;;;;;6338514;28;20289;-78
2023/03/23 08:31:59;;;;;;;7.03;3.60;;;;;;;;;;6334577;28;20066;-75
2023/03/23 08:35:01;;;;;;;5.00;3.55;;;;;;;;;;6334133;28;20213;-76
2023/03/23 08:38:03;;;;;;;5.45;3.58;;;;;;;;;;6336645;28;20340;-78
2023/03/23 08:41:24;;;;;;;4.80;3.22;;;;;;;;;;6336590;28;20277;-78
2023/03/23 08:44:29;;;;;;;5.35;3.30;;;;;;;;;;6310221;28;20220;-78
2023/03/23 08:47:33;;;;;;;6.18;3.03;;;;;;;;;;6339188;28;20327;-78
2023/03/23 08:50:35;;;;;;;5.32;3.40;;;;;;;;;;6338778;27;20059;-77
2023/03/23 08:53:37;;;;;;;6.40;3.50;;;;;;;;;;6340100;28;20332;-76
2023/03/23 08:56:41;;;;;;;4.78;3.35;;;;;;;;;;6328940;28;20047;-78
2023/03/23 08:59:43;;;;;;;;;;;;;;;;;;6340193;28;20044;-78
2023/03/23 09:02:47;;;;;;;8.90;4.05;;;;;;;;;;6338847;28;19924;-78
2023/03/23 09:05:50;;;;;;;5.50;3.97;;;;;;;;;;6341387;28;20254;-77
2023/03/23 09:08:52;;;;;;;;;;;;;;;;;;6342456;28;20044;-76
2023/03/23 09:11:59;;;;;;;9.55;3.97;;;;;;;;;;6341287;28;19961;-77
2023/03/23 09:15:05;;;;;;;5.72;4.03;;;;;;;;;;6337288;28;20105;-76
2023/03/23 09:18:06;;;;;;;5.28;3.78;;;;;;;;;;6341300;28;20078;-77
2023/03/23 09:21:09;;;;;;;5.82;3.10;;;;;;;;;;6337535;28;20051;-77
2023/03/23 09:24:11;;;;;;;6.50;3.85;;;;;;;;;;6339494;28;20051;-77
2023/03/23 09:27:14;;;;;;;7.07;3.55;;;;;;;;;;6339665;28;20044;-77
2023/03/23 09:30:18;;;;;;;4.03;3.00;;;;;;;;;;6343982;28;20055;-77
2023/03/23 09:33:22;;;;;;;5.72;3.20;;;;;;;;;;6329928;28;20039;-75
2023/03/23 09:36:25;;;;;;;4.45;3.88;;;;;;;;;;6333577;28;20075;-76
2023/03/23 09:39:27;;;;;;;8.20;3.55;;;;;;;;;;6335189;28;20056;-72
2023/03/23 09:42:38;;;;;;;7.18;3.35;;;;;;;;;;6339282;28;20052;-77
2023/03/23 09:45:46;;;;;;;6.38;3.80;;;;;;;;;;6338597;28;20040;-77
2023/03/23 09:49:06;;;;;;;4.68;3.35;;;;;;;;;;6336628;28;20074;-77
2023/03/23 09:52:36;;;;;;;6.60;4.40;;;;;;;;;;6344987;27;20049;-77
2023/03/23 09:55:38;;;;;;;5.25;3.95;;;;;;;;;;6345879;27;20063;-77
2023/03/23 09:58:53;;;;;;;6.47;3.40;;;;;;;;;;6361021;27;20059;-74
2023/03/23 10:02:08;;;;;;;;;;;;;;;;;;;;;
2023/03/23 10:05:24;;;;;;;7.35;3.78;;;;;;;;;;6362349;27;20088;-76
2023/03/23 10:08:29;;;;;;;5.45;3.58;;;;;;;;;;6361223;27;20165;-76
2023/03/23 10:11:38;;;;;;;7.40;4.43;;;;;;;;;;6362383;27;20349;-74
2023/03/23 10:14:51;;;;;;;7.95;4.80;;;;;;;;;;6360827;27;20352;-76
2023/03/23 10:17:55;;;;;;;8.65;4.22;;;;;;;;;;6361826;27;20092;-77
2023/03/23 10:20:59;;;;;;;10.43;4.68;;;;;;;;;;6361714;27;20055;-76
2023/03/23 10:24:05;;;;;;;6.90;5.15;;;;;;;;;;6363386;27;20052;-76
2023/03/23 10:27:21;;;;;;;7.68;5.80;;;;;;;;;;6363711;27;20061;-77
2023/03/23 10:30:27;;;;;;;12.77;5.70;;;;;;;;;;6360877;27;20051;-76
2023/03/23 10:33:34;;;;;;;7.93;6.25;;;;;;;;;;6364007;27;20088;-76
2023/03/23 10:36:39;;;;;;;7.60;6.07;;;;;;;;;;6358745;27;20075;-77
2023/03/23 10:39:46;;;;;;;7.70;6.05;;;;;;;;;;6361429;27;20085;-74
2023/03/23 10:42:48;;;;;;;8.88;6.72;;;;;;;;;;6358470;27;20106;-77
2023/03/23 10:45:57;;;;;;;12.00;6.90;;;;;;;;;;6352334;27;20251;-77
2023/03/23 10:49:03;;;;;;;11.23;6.88;;;;;;;;;;6360839;27;20355;-77
2023/03/23 10:52:14;;;;;;;11.40;7.53;;;;;;;;;;6339313;27;20056;-78
2023/03/23 10:59:21;;;;;;;7.90;6.10;;;;;;;;;;6212212;28;20049;-77
2023/03/23 11:02:25;;;;;;;11.18;6.85;;;;;;;;;;6261322;28;20059;-77
2023/03/23 11:05:33;;;;;;;8.95;6.10;;;;;;;;;;6327277;27;20055;-77
2023/03/23 11:08:37;;;;;;;8.93;6.53;;;;;;;;;;6335520;28;20055;-78
2023/03/23 11:11:42;;;;;;;8.32;5.50;;;;;;;;;;6336860;27;20051;-76
2023/03/23 11:14:44;;;;;;;11.82;7.50;;;;;;;;;;6335380;27;20135;-74
2023/03/23 11:18:02;;;;;;;10.70;8.30;;;;;;;;;;6338303;27;20047;-78
2023/03/23 11:21:08;;;;;;;12.48;8.52;;;;;;;;;;6336408;27;20120;-71
2023/03/23 11:24:11;;;;;;;10.82;8.20;;;;;;;;;;6336099;28;20118;-78
2023/03/23 11:27:15;;;;;;;14.95;9.80;;;;;;;;;;6338311;28;20055;-76
2023/03/23 11:30:25;;;;;;;10.52;8.63;;;;;;;;;;6334544;28;20047;-74
2023/03/23 11:33:36;;;;;;;10.18;7.13;;;;;;;;;;6334318;28;20067;-72
2023/03/23 11:36:38;;;;;;;9.90;7.60;;;;;;;;;;6336156;28;20066;-76
2023/03/23 11:39:48;;;;;;;13.00;7.22;;;;;;;;;;6336127;28;20089;-76
2023/03/23 11:42:56;;;;;;;11.05;8.13;;;;;;;;;;6337227;28;20051;-75
2023/03/23 11:46:04;;;;;;;11.60;7.32;;;;;;;;;;6336276;28;20048;-78
2023/03/23 11:49:14;;;;;;;10.00;6.28;;;;;;;;;;6334887;28;20054;-75
2023/03/23 11:52:22;;;;;;;10.02;7.10;;;;;;;;;;6358944;27;20052;-72
2023/03/23 11:55:27;;;;;;;11.40;7.60;;;;;;;;;;6347417;27;20063;-76
2023/03/23 11:58:32;;;;;;;7.93;6.80;;;;;;;;;;6359585;28;21149;-76
2023/03/23 12:01:44;;;;;;;11.82;7.72;;;;;;;;;;6362539;27;20071;-77
2023/03/23 12:05:21;;;;;;;15.10;8.40;;;;;;;;;;6362574;28;20078;-76
2023/03/23 12:08:35;;;;;;;9.98;8.45;;;;;;;;;;6343829;28;20315;-77
2023/03/23 12:11:42;;;;;;;12.15;9.35;;;;;;;;;;6361250;28;20134;-78
2023/03/23 12:14:51;;;;;;;11.85;8.70;;;;;;;;;;6360988;27;20092;-74
2023/03/23 12:18:18;;;;;;;9.63;8.27;;;;;;;;;;6366844;27;20104;-71
2023/03/23 12:21:32;;;;;;;9.48;8.48;;;;;;;;;;6364725;27;20320;-78
2023/03/23 12:25:05;;;;;;;11.40;8.77;;;;;;;;;;6362341;27;20039;-77
2023/03/23 12:28:13;;;;;;;11.25;9.45;;;;;;;;;;6366125;27;20174;-77
2023/03/23 12:31:20;;;;;;;14.50;10.43;;;;;;;;;;6363733;27;20055;-77
2023/03/23 12:34:44;;;;;;;14.02;8.93;;;;;;;;;;6363083;27;20062;-78
2023/03/23 12:37:54;;;;;;;10.88;8.65;;;;;;;;;;6367595;27;20245;-77
2023/03/23 12:41:07;;;;;;;12.23;9.77;;;;;;;;;;6362879;27;20047;-76
2023/03/23 12:44:10;;;;;;;11.02;9.27;;;;;;;;;;6365065;27;20074;-77
2023/03/23 12:47:28;;;;;;;14.57;9.10;;;;;;;;;;6363540;27;20051;-76
2023/03/23 12:50:33;;;;;;;10.23;8.07;;;;;;;;;;6365870;27;20055;-77
2023/03/23 12:53:40;;;;;;;12.18;8.30;;;;;;;;;;6363908;27;20073;-75
2023/03/23 12:56:49;;;;;;;12.05;8.63;;;;;;;;;;6365201;27;20154;-78
2023/03/23 12:59:55;;;;;;;12.18;8.50;;;;;;;;;;6363884;27;20048;-78
2023/03/23 13:03:01;;;;;;;9.05;8.02;;;;;;;;;;6363245;27;20655;-78
2023/03/23 13:06:07;;;;;;;11.18;8.15;;;;;;;;;;6365940;27;20079;-77
2023/03/23 13:09:13;;;;;;;10.20;7.85;;;;;;;;;;6364048;27;20276;-76
2023/03/23 13:12:17;;;;;;;12.82;8.68;;;;;;;;;;6363370;27;20051;-78
2023/03/23 13:15:28;;;;;;;12.57;7.82;;;;;;;;;;6362038;27;20204;-78
2023/03/23 13:18:41;;;;;;;11.82;7.55;;;;;;;;;;6363606;27;20054;-77
2023/03/23 13:21:44;;;;;;;;;;;;;;;;;;6365957;27;20135;-77
2023/03/23 13:24:52;;;;;;;9.25;7.82;;;;;;;;;;6366046;27;19930;-75
2023/03/23 13:28:00;;;;;;;7.00;6.22;;;;;;;;;;6366483;27;20059;-75
2023/03/23 13:31:04;;;;;;;7.95;5.47;;;;;;;;;;6364175;27;20092;-76
2023/03/23 13:34:14;;;;;;;9.75;6.20;;;;;;;;;;6364211;27;20055;-74
2023/03/23 13:37:23;;;;;;;6.78;5.55;;;;;;;;;;6361158;27;20137;-75
2023/03/23 13:40:31;;;;;;;8.63;6.47;;;;;;;;;;6360858;27;20070;-75
2023/03/23 13:43:43;;;;;;;8.13;6.25;;;;;;;;;;6360125;27;20216;-74
2023/03/23 13:46:55;;;;;;;18.02;14.23;;;;;;;;;;6357214;27;20050;-75
2023/03/23 13:49:58;;;;;;;16.52;14.27;;;;;;;;;;6363231;27;20374;-75
2023/03/23 13:53:02;;;;;;;23.77;19.05;;;;;;;;;;6364710;27;20047;-72
2023/03/23 13:56:21;;;;;;;7.53;5.88;;;;;;;;;;6363471;27;20256;-75
2023/03/23 13:59:36;;;;;;;9.38;5.93;;;;;;;;;;6362768;27;20097;-74
2023/03/23 14:02:41;;;;;;;6.07;4.90;;;;;;;;;;6361891;27;20055;-75
2023/03/23 14:05:44;;;;;;;11.23;6.10;;;;;;;;;;6363413;27;20243;-73
2023/03/23 14:08:48;;;;;;;7.47;6.13;;;;;;;;;;6363143;27;20063;-74
2023/03/23 14:11:52;;;;;;;7.70;5.50;;;;;;;;;;6364243;27;20230;-75
2023/03/23 14:15:01;;;;;;;10.27;7.40;;;;;;;;;;6362929;27;20066;-74
2023/03/23 14:18:05;;;;;;;9.32;7.43;;;;;;;;;;6362393;27;20047;-74
2023/03/23 14:21:07;;;;;;;9.52;6.88;;;;;;;;;;6359797;27;20040;-77
2023/03/23 14:24:14;;;;;;;9.93;6.97;;;;;;;;;;6363588;27;20062;-73
2023/03/23 14:27:17;;;;;;;15.95;12.55;;;;;;;;;;6365229;27;20043;-75
2023/03/23 14:30:24;;;;;;;19.30;15.15;;;;;;;;;;6343364;27;20054;-77
2023/03/23 14:33:27;;;;;;;12.93;9.95;;;;;;;;;;6350049;27;20074;-76
2023/03/23 14:36:32;;;;;;;8.40;6.10;;;;;;;;;;6363368;27;20323;-76
2023/03/23 14:39:35;;;;;;;6.78;5.53;;;;;;;;;;6363751;27;20054;-77
2023/03/23 14:42:37;;;;;;;9.93;5.53;;;;;;;;;;6362610;27;20058;-78
2023/03/23 14:45:41;;;;;;;9.07;6.90;;;;;;;;;;6364097;27;20057;-76
2023/03/23 14:48:43;;;;;;;9.50;6.20;;;;;;;;;;6362326;27;20055;-80
2023/03/23 14:51:49;;;;;;;10.07;6.25;;;;;;;;;;6360327;27;20059;-78
2023/03/23 14:55:11;;;;;;;12.88;7.30;;;;;;;;;;6360766;27;20034;-79
2023/03/23 14:58:15;;;;;;;8.17;5.93;;;;;;;;;;6352715;27;20051;-78
2023/03/23 15:01:20;;;;;;;9.32;5.07;;;;;;;;;;6360810;27;20052;-79
2023/03/23 15:04:24;;;;;;;5.13;4.65;;;;;;;;;;6362110;27;20237;-72
2023/03/23 15:07:30;;;;;;;7.75;5.47;;;;;;;;;;6359854;27;20048;-79
2023/03/23 15:10:32;;;;;;;7.00;5.18;;;;;;;;;;6358734;27;20050;-80
2023/03/23 15:13:34;;;;;;;6.83;4.77;;;;;;;;;;6363000;27;20315;-80
2023/03/23 15:16:39;;;;;;;7.78;5.47;;;;;;;;;;6364432;27;20051;-77
2023/03/23 15:19:43;;;;;;;7.72;5.70;;;;;;;;;;6363788;27;20337;-78
2023/03/23 15:22:47;;;;;;;6.75;5.50;;;;;;;;;;6360606;27;20055;-80
2023/03/23 15:25:51;;;;;;;8.95;6.15;;;;;;;;;;6361983;27;20055;-78
2023/03/23 15:29:09;;;;;;;11.63;6.68;;;;;;;;;;6363323;27;20331;-72
2023/03/23 15:32:33;;;;;;;;;;;;;;;;;;;;;
2023/03/23 15:35:40;;;;;;;8.40;5.80;;;;;;;;;;6356404;27;20764;-81
2023/03/23 15:38:44;;;;;;;10.57;5.80;;;;;;;;;;6360587;27;20079;-80
2023/03/23 15:41:48;;;;;;;10.07;6.50;;;;;;;;;;6359924;27;20039;-77
2023/03/23 15:44:57;;;;;;;8.60;6.65;;;;;;;;;;6359340;28;20055;-78
2023/03/23 15:48:11;;;;;;;8.48;5.85;;;;;;;;;;6361256;27;20077;-79
2023/03/23 15:51:13;;;;;;;16.13;10.75;;;;;;;;;;6363530;27;20051;-78
2023/03/23 15:54:17;;;;;;;7.88;6.43;;;;;;;;;;6365346;27;20366;-78
2023/03/23 15:57:19;;;;;;;14.95;9.35;;;;;;;;;;6366609;27;20047;-80
2023/03/23 16:00:22;;;;;;;8.75;6.75;;;;;;;;;;6366594;27;20051;-78
2023/03/23 16:03:26;;;;;;;;;;;;;;;;;;6364331;27;20054;-79
2023/03/23 16:06:30;;;;;;;11.35;6.30;;;;;;;;;;6364766;27;19916;-79
2023/03/23 16:09:32;;;;;;;10.73;6.60;;;;;;;;;;6366518;27;20055;-71
2023/03/23 16:12:36;;;;;;;12.00;6.43;;;;;;;;;;6363745;27;20051;-79
2023/03/23 16:15:38;;;;;;;10.13;6.35;;;;;;;;;;6366551;27;20065;-79
2023/03/23 16:18:41;;;;;;;10.30;6.30;;;;;;;;;;6363976;27;20274;-78
2023/03/23 16:21:43;;;;;;;17.50;6.53;;;;;;;;;;6364435;27;20048;-78
2023/03/23 16:24:45;;;;;;;8.90;5.97;;;;;;;;;;6366550;27;20058;-79
2023/03/23 16:27:49;;;;;;;11.18;6.38;;;;;;;;;;6364711;27;20316;-78
2023/03/23 16:30:51;;;;;;;19.65;6.65;;;;;;;;;;6367230;27;20047;-80
2023/03/23 16:33:57;;;;;;;15.98;6.65;;;;;;;;;;6366976;27;21550;-80
2023/03/23 16:36:58;;;;;;;8.85;6.40;;;;;;;;;;6361732;27;20347;-78
2023/03/23 16:40:01;;;;;;;10.73;5.78;;;;;;;;;;6369208;27;20138;-79
2023/03/23 16:43:02;;;;;;;9.07;6.00;;;;;;;;;;6362988;27;20059;-79
2023/03/23 16:46:04;;;;;;;8.25;6.10;;;;;;;;;;6368499;27;20055;-80
2023/03/23 16:49:08;;;;;;;10.63;6.00;;;;;;;;;;6365417;27;20116;-78
2023/03/23 16:52:09;;;;;;;9.60;6.10;;;;;;;;;;6364755;27;20056;-77
2023/03/23 16:55:12;;;;;;;8.82;6.00;;;;;;;;;;6366264;27;20056;-71
2023/03/23 16:58:14;;;;;;;8.00;5.80;;;;;;;;;;6365503;27;20088;-78
2023/03/23 17:01:25;;;;;;;12.55;6.38;;;;;;;;;;6366420;27;20359;-80
2023/03/23 17:04:29;;;;;;;11.45;5.85;;;;;;;;;;6365779;27;20074;-79
2023/03/23 17:07:31;;;;;;;7.00;5.35;;;;;;;;;;6363789;27;20051;-79
2023/03/23 17:10:33;;;;;;;6.90;5.32;;;;;;;;;;6361482;27;20047;-79
2023/03/23 17:13:35;;;;;;;8.18;4.63;;;;;;;;;;6366503;27;20292;-79
2023/03/23 17:16:37;;;;;;;7.47;4.90;;;;;;;;;;6351793;27;20120;-78
2023/03/23 17:19:40;;;;;;;7.82;4.45;;;;;;;;;;6364765;27;20071;-76
2023/03/23 17:22:42;;;;;;;5.38;4.00;;;;;;;;;;6365321;27;20051;-79
2023/03/23 17:25:44;;;;;;;11.00;4.18;;;;;;;;;;6364007;27;20047;-79
2023/03/23 17:28:46;;;;;;;16.23;5.50;;;;;;;;;;6341534;27;20080;-78
2023/03/23 17:31:49;;;;;;;6.65;4.68;;;;;;;;;;6364502;27;20043;-78
2023/03/23 17:34:52;;;;;;;7.28;4.32;;;;;;;;;;6368517;27;20118;-80
2023/03/23 17:37:54;;;;;;;;;;;;;;;;;;6367542;27;20088;-79
2023/03/23 17:40:57;;;;;;;6.07;3.80;;;;;;;;;;6363082;27;19984;-78
2023/03/23 17:43:59;;;;;;;6.00;3.95;;;;;;;;;;6363146;27;20437;-74
2023/03/23 17:47:01;;;;;;;9.00;3.70;;;;;;;;;;6361239;27;20122;-78
2023/03/23 17:50:11;;;;;;;7.57;3.60;;;;;;;;;;6364097;27;20098;-78
2023/03/23 17:53:19;;;;;;;10.05;3.33;;;;;;;;;;6363540;27;20273;-78
2023/03/23 17:56:30;;;;;;;10.25;3.50;;;;;;;;;;6363409;27;20055;-79
2023/03/23 17:59:32;;;;;;;5.53;3.40;;;;;;;;;;6363079;27;20055;-79
2023/03/23 18:02:34;;;;;;;9.00;3.17;;;;;;;;;;6359746;27;20066;-77
2023/03/23 18:05:38;;;;;;;6.50;3.08;;;;;;;;;;6359708;27;20149;-74
2023/03/23 18:08:40;;;;;;;4.47;3.28;;;;;;;;;;6364801;27;20323;-72
2023/03/23 18:11:42;;;;;;;4.60;3.25;;;;;;;;;;6358402;27;20052;-81
2023/03/23 18:14:44;;;;;;;5.07;3.25;;;;;;;;;;6362493;27;20056;-80
2023/03/23 18:17:49;;;;;;;5.72;3.13;;;;;;;;;;6359797;27;20059;-77
2023/03/23 18:20:56;;;;;;;6.43;3.83;;;;;;;;;;6359229;27;20106;-74
2023/03/23 18:23:58;;;;;;;6.30;3.30;;;;;;;;;;6364263;27;20047;-80
2023/03/23 18:27:01;;;;;;;11.45;3.40;;;;;;;;;;6363939;27;20047;-80
2023/03/23 18:30:10;;;;;;;7.18;3.47;;;;;;;;;;6364216;27;20114;-79
2023/03/23 18:33:12;;;;;;;6.38;3.70;;;;;;;;;;6359944;27;20114;-77
2023/03/23 18:36:18;;;;;;;6.95;4.05;;;;;;;;;;6361395;27;20051;-77
2023/03/23 18:39:20;;;;;;;5.18;3.40;;;;;;;;;;6361249;27;20062;-74
2023/03/23 18:42:23;;;;;;;5.38;2.97;;;;;;;;;;6363890;27;20254;-75
2023/03/23 18:45:25;;;;;;;6.88;3.40;;;;;;;;;;6364930;27;20047;-75
2023/03/23 18:48:27;;;;;;;5.65;3.63;;;;;;;;;;6359127;27;20055;-79
2023/03/23 18:51:30;;;;;;;6.38;3.40;;;;;;;;;;6361717;27;20055;-76
2023/03/23 18:54:33;;;;;;;6.95;3.72;;;;;;;;;;6364498;27;20052;-76
2023/03/23 18:57:39;;;;;;;6.50;3.60;;;;;;;;;;6357332;27;20049;-77
2023/03/23 19:00:42;;;;;;;8.27;3.72;;;;;;;;;;6340655;27;20126;-76
2023/03/23 19:03:44;;;;;;;9.80;3.90;;;;;;;;;;6362520;27;20270;-72
2023/03/23 19:06:50;;;;;;;9.90;3.35;;;;;;;;;;6359005;27;20058;-74
2023/03/23 19:09:52;;;;;;;6.70;3.67;;;;;;;;;;6362958;27;20050;-76
2023/03/23 19:12:54;;;;;;;5.70;3.63;;;;;;;;;;6359045;27;20055;-74
2023/03/23 19:15:57;;;;;;;6.53;3.80;;;;;;;;;;6361566;27;20059;-75
2023/03/23 19:19:02;;;;;;;6.43;4.23;;;;;;;;;;6363790;27;20335;-76
2023/03/23 19:22:06;;;;;;;6.10;3.35;;;;;;;;;;6361354;27;20636;-79
2023/03/23 19:25:09;;;;;;;4.68;3.85;;;;;;;;;;6368980;27;20051;-74
2023/03/23 19:28:11;;;;;;;6.72;3.90;;;;;;;;;;6365686;27;20075;-77
2023/03/23 19:31:14;;;;;;;6.35;4.22;;;;;;;;;;6363500;27;20081;-76
2023/03/23 19:34:16;;;;;;;7.03;4.43;;;;;;;;;;6366053;27;20051;-75
2023/03/23 19:37:22;;;;;;;5.97;4.07;;;;;;;;;;6362371;27;20852;-73
2023/03/23 19:40:28;;;;;;;9.27;4.93;;;;;;;;;;6369541;27;20047;-75
2023/03/23 19:43:30;;;;;;;8.75;4.45;;;;;;;;;;6353083;27;20035;-73
2023/03/23 19:46:32;;;;;;;8.57;4.10;;;;;;;;;;6367517;27;20043;-74
2023/03/23 19:49:34;;;;;;;10.45;4.75;;;;;;;;;;6365487;28;20051;-75
2023/03/23 19:52:37;;;;;;;6.35;4.40;;;;;;;;;;6364147;27;20051;-74
2023/03/23 19:55:39;;;;;;;5.90;4.20;;;;;;;;;;6364085;27;20273;-74
2023/03/23 19:58:41;;;;;;;7.95;4.53;;;;;;;;;;6366835;27;20051;-74
2023/03/23 20:01:44;;;;;;;6.78;4.82;;;;;;;;;;6366775;27;20067;-79